createdAt,value
2019-05-19T00:00:36.076Z,25.30
2019-05-19T00:05:36.013Z,25.60
2019-05-19T00:10:35.955Z,27.20
2019-05-19T00:15:35.923Z,27.30
2019-05-19T00:20:35.854Z,26.50
2019-05-19T00:25:35.801Z,27.20
2019-05-19T00:30:35.771Z,28.00
2019-05-19T00:35:35.696Z,27.90
2019-05-19T00:40:35.643Z,29.00
2019-05-19T00:45:35.572Z,28.20
2019-05-19T00:50:35.531Z,29.50
2019-05-19T00:55:35.491Z,29.50
2019-05-19T01:00:35.421Z,30.40
2019-05-19T01:05:35.365Z,31.60
2019-05-19T01:10:35.330Z,30.70
2019-05-19T01:15:35.248Z,33.00
2019-05-19T01:20:35.213Z,34.10
2019-05-19T01:25:35.211Z,35.60
2019-05-19T01:30:43.362Z,35.80
2019-05-19T01:35:35.064Z,35.00
2019-05-19T01:40:35.001Z,33.50
2019-05-19T01:45:34.931Z,34.30
2019-05-19T01:50:34.951Z,33.00
2019-05-19T01:55:34.850Z,34.30
2019-05-19T02:00:34.799Z,36.00
2019-05-19T02:05:34.724Z,32.30
2019-05-19T02:10:34.729Z,34.90
2019-05-19T02:15:34.617Z,34.50
2019-05-19T02:20:34.577Z,35.30
2019-05-19T02:25:34.514Z,35.00
2019-05-19T02:30:34.461Z,35.90
2019-05-19T02:35:34.420Z,34.50
2019-05-19T02:40:34.379Z,34.40
2019-05-19T02:45:34.315Z,32.20
2019-05-19T02:50:50.861Z,33.50
2019-05-19T02:55:35.210Z,34.10
2019-05-19T03:00:34.157Z,36.20
2019-05-19T03:05:34.102Z,37.70
2019-05-19T03:10:34.047Z,40.70
2019-05-19T03:15:33.981Z,44.10
2019-05-19T03:20:33.951Z,48.80
2019-05-19T03:25:33.866Z,63.00
2019-05-19T03:30:33.818Z,67.90
2019-05-19T03:35:33.776Z,65.50
2019-05-19T03:40:33.768Z,53.70
2019-05-19T03:45:33.656Z,48.60
2019-05-19T03:50:33.605Z,37.70
2019-05-19T03:55:33.538Z,36.40
2019-05-19T04:00:33.498Z,35.00
2019-05-19T04:05:33.458Z,33.00
2019-05-19T04:10:33.384Z,33.20
2019-05-19T04:15:33.343Z,33.60
2019-05-19T04:20:33.273Z,37.70
2019-05-19T04:25:33.223Z,36.60
2019-05-19T04:30:33.172Z,52.70
2019-05-19T04:35:33.139Z,48.20
2019-05-19T04:40:33.040Z,46.30
2019-05-19T04:45:33.006Z,44.70
2019-05-19T04:50:32.960Z,39.10
2019-05-19T04:55:32.891Z,37.30
2019-05-19T05:00:32.850Z,31.90
2019-05-19T05:05:32.786Z,28.10
2019-05-19T05:10:32.729Z,28.70
2019-05-19T05:15:32.679Z,27.10
2019-05-19T05:20:32.628Z,26.80
2019-05-19T05:25:32.569Z,26.30
2019-05-19T05:30:32.538Z,27.30
2019-05-19T05:35:32.477Z,25.60
2019-05-19T05:40:32.422Z,24.30
2019-05-19T05:45:32.369Z,24.70
2019-05-19T05:50:32.327Z,23.30
2019-05-19T05:55:32.318Z,22.50
2019-05-19T06:00:32.228Z,21.90
2019-05-19T06:05:32.177Z,24.80
2019-05-19T06:10:32.098Z,24.30
2019-05-19T06:15:32.093Z,24.50
2019-05-19T06:20:32.020Z,25.50
2019-05-19T06:25:32.316Z,25.60
2019-05-19T06:30:31.878Z,26.30
2019-05-19T06:35:31.900Z,25.80
2019-05-19T06:40:31.826Z,25.50
2019-05-19T06:45:31.755Z,27.50
2019-05-19T06:50:31.681Z,28.80
2019-05-19T06:55:31.672Z,28.20
2019-05-19T07:00:31.611Z,26.20
2019-05-19T07:05:31.603Z,27.00
2019-05-19T07:10:31.481Z,28.20
2019-05-19T07:15:31.473Z,28.60
2019-05-19T07:20:31.458Z,30.10
2019-05-19T07:25:31.355Z,33.10
2019-05-19T07:30:31.295Z,35.80
2019-05-19T07:35:31.254Z,35.20
2019-05-19T07:40:31.184Z,35.30
2019-05-19T07:45:31.181Z,35.50
2019-05-19T07:50:31.114Z,36.50
2019-05-19T07:55:31.110Z,36.20
2019-05-19T08:00:31.089Z,36.10
2019-05-19T08:05:31.025Z,32.30
2019-05-19T08:10:30.946Z,33.90
2019-05-19T08:15:30.882Z,35.30
2019-05-19T08:20:31.868Z,34.50
2019-05-19T08:25:30.833Z,33.00
2019-05-19T08:30:30.727Z,33.00
2019-05-19T08:35:30.797Z,34.10
2019-05-19T08:40:30.685Z,33.80
2019-05-19T08:45:30.617Z,32.10
2019-05-19T08:50:30.927Z,31.20
2019-05-19T08:55:30.592Z,33.40
2019-05-19T09:00:33.557Z,33.50
2019-05-19T09:05:30.468Z,35.00
2019-05-19T09:10:30.388Z,37.00
2019-05-19T09:15:30.315Z,38.40
2019-05-19T09:20:30.331Z,41.60
2019-05-19T09:25:30.238Z,39.30
2019-05-19T09:30:30.232Z,42.10
2019-05-19T09:35:30.205Z,39.90
2019-05-19T09:40:30.107Z,36.80
2019-05-19T09:45:30.076Z,35.60
2019-05-19T09:50:30.015Z,33.70
2019-05-19T09:55:29.971Z,35.40
2019-05-19T10:00:29.944Z,37.30
2019-05-19T10:05:29.875Z,34.40
2019-05-19T10:10:29.846Z,33.40
2019-05-19T10:15:29.787Z,29.10
2019-05-19T10:20:29.744Z,30.60
2019-05-19T10:25:29.707Z,28.90
2019-05-19T10:30:29.628Z,34.60
2019-05-19T10:35:29.630Z,31.90
2019-05-19T10:40:29.574Z,33.10
2019-05-19T10:45:29.540Z,33.80
2019-05-19T10:50:29.471Z,34.20
2019-05-19T10:55:36.576Z,23.80
2019-05-19T11:00:30.399Z,24.00
2019-05-19T11:05:29.389Z,29.70
2019-05-19T11:10:29.358Z,25.40
2019-05-19T11:15:29.274Z,24.10
2019-05-19T11:20:29.275Z,20.20
2019-05-19T11:25:34.132Z,22.70
2019-05-19T11:30:30.177Z,21.90
2019-05-19T11:35:29.106Z,20.70
2019-05-19T11:40:29.056Z,22.50
2019-05-19T11:45:29.441Z,21.40
2019-05-19T11:50:28.980Z,16.30
2019-05-19T11:55:28.954Z,17.80
2019-05-19T12:00:28.893Z,19.50
2019-05-19T12:05:28.924Z,17.20
2019-05-19T12:10:28.883Z,17.10
2019-05-19T12:15:28.832Z,14.30
2019-05-19T12:20:28.823Z,14.20
2019-05-19T12:25:28.750Z,16.10
2019-05-19T12:30:28.824Z,15.10
2019-05-19T12:35:29.745Z,16.20
2019-05-19T12:40:28.613Z,15.40
2019-05-19T12:45:28.599Z,13.00
2019-05-19T12:50:28.625Z,12.70
2019-05-19T12:55:28.783Z,13.00
2019-05-19T13:00:28.487Z,11.90
2019-05-19T13:05:28.431Z,12.90
2019-05-19T13:10:28.419Z,13.40
2019-05-19T13:15:28.328Z,15.70
2019-05-19T13:20:28.253Z,15.50
2019-05-19T13:25:28.210Z,13.40
2019-05-19T13:30:28.193Z,12.80
2019-05-19T13:35:28.132Z,11.80
2019-05-19T13:40:28.081Z,12.00
2019-05-19T13:45:28.143Z,12.10
2019-05-19T13:50:28.033Z,9.10
2019-05-19T13:55:28.021Z,10.80
2019-05-19T14:00:27.899Z,8.70
2019-05-19T14:05:27.832Z,10.30
2019-05-19T14:10:27.924Z,12.40
2019-05-19T14:15:27.725Z,11.20
2019-05-19T14:20:27.663Z,13.00
2019-05-19T14:25:27.597Z,13.60
2019-05-19T14:30:27.676Z,17.90
2019-05-19T14:35:27.609Z,22.10
2019-05-19T14:40:27.570Z,20.40
2019-05-19T14:45:27.683Z,19.10
2019-05-19T14:50:27.549Z,19.50
2019-05-19T14:55:27.512Z,22.00
2019-05-19T15:00:31.226Z,21.60
2019-05-19T15:05:27.614Z,26.70
2019-05-19T15:10:27.385Z,34.50
2019-05-19T15:15:27.341Z,35.30
2019-05-19T15:20:27.502Z,33.30
2019-05-19T15:25:27.251Z,32.30
2019-05-19T15:30:27.209Z,31.90
2019-05-19T15:35:27.206Z,24.80
2019-05-19T15:40:27.145Z,22.40
2019-05-19T15:45:27.630Z,22.10
2019-05-19T15:50:27.050Z,18.50
2019-05-19T15:55:27.002Z,18.40
2019-05-19T16:00:27.149Z,23.30
2019-05-19T16:05:26.942Z,19.70
2019-05-19T16:10:26.871Z,20.90
2019-05-19T16:15:26.775Z,22.10
2019-05-19T16:20:26.694Z,21.50
2019-05-19T16:25:26.656Z,12.10
2019-05-19T16:30:26.608Z,11.20
2019-05-19T16:35:26.599Z,11.00
2019-05-19T16:40:26.479Z,12.90
2019-05-19T16:45:26.562Z,15.50
2019-05-19T16:50:26.638Z,17.10
2019-05-19T16:55:26.807Z,22.40
2019-05-19T17:00:26.803Z,19.10
2019-05-19T17:05:26.744Z,23.20
2019-05-19T17:10:26.810Z,24.30
2019-05-19T17:15:26.676Z,20.50
2019-05-19T17:20:27.700Z,12.80
2019-05-19T17:25:26.549Z,13.30
2019-05-19T17:30:26.502Z,12.20
2019-05-19T17:35:26.563Z,11.20
2019-05-19T17:40:26.455Z,13.40
2019-05-19T17:45:26.360Z,13.60
2019-05-19T17:50:26.348Z,16.90
2019-05-19T17:55:26.258Z,17.30
2019-05-19T18:00:26.208Z,18.00
2019-05-19T18:05:26.269Z,17.60
2019-05-19T18:10:26.097Z,17.90
2019-05-19T18:15:26.025Z,16.40
2019-05-19T18:20:27.399Z,12.10
2019-05-19T18:25:26.167Z,8.80
2019-05-19T18:30:26.004Z,11.10
2019-05-19T18:35:36.000Z,8.50
2019-05-19T18:40:26.359Z,9.80
2019-05-19T18:45:25.751Z,8.90
2019-05-19T18:50:25.774Z,9.80
2019-05-19T18:55:25.639Z,8.50
2019-05-19T19:00:25.619Z,9.90
2019-05-19T19:05:25.550Z,10.40
2019-05-19T19:10:26.519Z,10.70
2019-05-19T19:15:25.454Z,11.80
2019-05-19T19:20:25.456Z,11.50
2019-05-19T19:25:25.411Z,12.90
2019-05-19T19:30:26.643Z,13.70
2019-05-19T19:35:25.362Z,15.60
2019-05-19T19:40:25.236Z,15.10
2019-05-19T19:45:25.125Z,15.80
2019-05-19T19:50:25.111Z,15.20
2019-05-19T19:55:25.046Z,15.30
2019-05-19T20:00:24.978Z,14.60
2019-05-19T20:05:24.915Z,15.70
2019-05-19T20:10:24.841Z,17.70
2019-05-19T20:15:24.824Z,18.60
2019-05-19T20:20:24.770Z,20.30
2019-05-19T20:25:24.703Z,23.90
2019-05-19T20:30:35.863Z,25.10
2019-05-19T20:35:25.609Z,27.70
2019-05-19T20:40:32.199Z,27.90
2019-05-19T20:45:26.547Z,29.20
2019-05-19T20:50:24.409Z,28.60
2019-05-19T20:55:24.392Z,28.30
2019-05-19T21:00:24.309Z,28.70
2019-05-19T21:05:24.263Z,29.80
2019-05-19T21:10:24.212Z,28.00
2019-05-19T21:15:24.202Z,27.30
2019-05-19T21:20:24.140Z,27.90
2019-05-19T21:25:24.134Z,25.00
2019-05-19T21:30:24.009Z,25.80
2019-05-19T21:35:23.985Z,24.80
2019-05-19T21:40:23.910Z,26.60
2019-05-19T21:45:23.866Z,27.10
2019-05-19T21:50:23.799Z,24.50
2019-05-19T21:55:23.732Z,26.10
2019-05-19T22:00:23.732Z,25.80
2019-05-19T22:05:23.619Z,26.30
2019-05-19T22:10:23.587Z,26.30
2019-05-19T22:15:23.536Z,25.20
2019-05-19T22:20:23.494Z,25.70
2019-05-19T22:25:23.422Z,24.70
2019-05-19T22:30:23.444Z,26.10
2019-05-19T22:35:23.385Z,26.90
2019-05-19T22:40:23.366Z,26.80
2019-05-19T22:45:23.230Z,29.40
2019-05-19T22:50:23.149Z,31.90
2019-05-19T22:55:23.155Z,35.60
2019-05-19T23:00:32.095Z,33.50
2019-05-19T23:05:23.003Z,36.00
2019-05-19T23:10:22.953Z,33.10
2019-05-19T23:15:25.422Z,40.20
2019-05-19T23:20:22.878Z,38.20
2019-05-19T23:25:22.870Z,41.40
2019-05-19T23:30:22.866Z,46.10
2019-05-19T23:35:22.713Z,40.80
2019-05-19T23:40:22.724Z,47.00
2019-05-19T23:45:22.590Z,47.60
2019-05-19T23:50:22.553Z,52.60
2019-05-19T23:55:22.522Z,57.30
